TFEPG BIRK-BISF
Flight info
| Callsign | TFEPG |
|---|---|
| Flight time | 0h 17m |
| Altitude | 1500 |
| Route | DCT LANGAVATN DCT 640432N0213636W 635956N0211126W DCT |
| Aircraft | C172/L-SBDGR/C |
Departure
| Time | 2026-05-08 11:13 |
|---|---|
| Airport | Reykjavík Domestic Airport (BIRK) |
Arrival
| Time | 2026-05-08 11:30 |
|---|---|
| Airport | Selfoss Airport (BISF) |
| Time | Latitude | Longitude | Altitude | Speed | Heading |
|---|---|---|---|---|---|
| 2026-05-08 10:58 | 64.13122 | -21.93435 | 39 ft | 0 kts | 355° |
| 2026-05-08 11:06 | 64.13132 | -21.93454 | 39 ft | 1 kts | 269° |
| 2026-05-08 11:07 | 64.13106 | -21.93544 | 36 ft | 6 kts | 190° |
| 2026-05-08 11:07 | 64.13040 | -21.93554 | 33 ft | 10 kts | 183° |
| 2026-05-08 11:07 | 64.12958 | -21.93566 | 30 ft | 11 kts | 183° |
| 2026-05-08 11:07 | 64.12903 | -21.93503 | 29 ft | 7 kts | 177° |
| 2026-05-08 11:08 | 64.12837 | -21.93490 | 26 ft | 13 kts | 173° |
| 2026-05-08 11:08 | 64.12732 | -21.93472 | 22 ft | 16 kts | 176° |
| 2026-05-08 11:08 | 64.12614 | -21.93452 | 19 ft | 17 kts | 176° |
| 2026-05-08 11:08 | 64.12512 | -21.93431 | 16 ft | 12 kts | 175° |
| 2026-05-08 11:09 | 64.12420 | -21.93413 | 13 ft | 13 kts | 175° |
| 2026-05-08 11:09 | 64.12316 | -21.93395 | 11 ft | 14 kts | 178° |
| 2026-05-08 11:09 | 64.12217 | -21.93395 | 9 ft | 14 kts | 194° |
| 2026-05-08 11:09 | 64.12195 | -21.93414 | 8 ft | 0 kts | 206° |
| 2026-05-08 11:10 | 64.12180 | -21.93429 | 7 ft | 6 kts | 205° |
| 2026-05-08 11:10 | 64.12123 | -21.93557 | 6 ft | 14 kts | 267° |
| 2026-05-08 11:10 | 64.12189 | -21.93616 | 6 ft | 11 kts | 355° |
| 2026-05-08 11:10 | 64.12286 | -21.93635 | 6 ft | 15 kts | 354° |
| 2026-05-08 11:11 | 64.12307 | -21.93639 | 6 ft | 0 kts | 355° |
| 2026-05-08 11:11 | 64.12376 | -21.93653 | 7 ft | 29 kts | 355° |
| 2026-05-08 11:12 | 64.12734 | -21.93720 | 28 ft | 70 kts | 352° |
| 2026-05-08 11:12 | 64.13223 | -21.93839 | 225 ft | 70 kts | 359° |
| 2026-05-08 11:12 | 64.13705 | -21.93883 | 421 ft | 71 kts | 348° |
| 2026-05-08 11:12 | 64.14202 | -21.94068 | 593 ft | 73 kts | 348° |
| 2026-05-08 11:13 | 64.14695 | -21.94194 | 783 ft | 73 kts | 354° |
| 2026-05-08 11:13 | 64.15089 | -21.93727 | 1004 ft | 73 kts | 60° |
| 2026-05-08 11:13 | 64.15007 | -21.92505 | 1156 ft | 84 kts | 104° |
| 2026-05-08 11:13 | 64.14831 | -21.91265 | 1334 ft | 83 kts | 98° |
| 2026-05-08 11:14 | 64.14751 | -21.90103 | 1609 ft | 69 kts | 90° |
| 2026-05-08 11:14 | 64.14565 | -21.88794 | 1481 ft | 96 kts | 105° |
| 2026-05-08 11:14 | 64.14334 | -21.87411 | 1494 ft | 90 kts | 102° |
| 2026-05-08 11:14 | 64.14101 | -21.86079 | 1503 ft | 92 kts | 106° |
| 2026-05-08 11:15 | 64.13866 | -21.84711 | 1502 ft | 92 kts | 99° |
| 2026-05-08 11:15 | 64.13686 | -21.83322 | 1503 ft | 92 kts | 96° |
| 2026-05-08 11:15 | 64.13546 | -21.81894 | 1505 ft | 93 kts | 94° |
| 2026-05-08 11:15 | 64.13336 | -21.80463 | 1503 ft | 95 kts | 103° |
| 2026-05-08 11:16 | 64.13123 | -21.79040 | 1496 ft | 94 kts | 100° |
| 2026-05-08 11:16 | 64.12941 | -21.77640 | 1505 ft | 91 kts | 98° |
| 2026-05-08 11:16 | 64.12793 | -21.76225 | 1510 ft | 89 kts | 92° |
| 2026-05-08 11:16 | 64.12628 | -21.74812 | 1503 ft | 93 kts | 101° |
| 2026-05-08 11:17 | 64.12403 | -21.73425 | 1514 ft | 93 kts | 103° |
| 2026-05-08 11:17 | 64.12173 | -21.72009 | 1511 ft | 92 kts | 99° |
| 2026-05-08 11:17 | 64.11996 | -21.70613 | 1505 ft | 92 kts | 97° |
| 2026-05-08 11:17 | 64.11797 | -21.69231 | 1499 ft | 97 kts | 117° |
| 2026-05-08 11:18 | 64.11264 | -21.68016 | 1509 ft | 116 kts | 136° |
| 2026-05-08 11:18 | 64.10610 | -21.66891 | 1499 ft | 112 kts | 135° |
| 2026-05-08 11:18 | 64.10027 | -21.65787 | 1501 ft | 109 kts | 137° |
| 2026-05-08 11:18 | 64.09439 | -21.64657 | 1496 ft | 112 kts | 134° |
| 2026-05-08 11:19 | 64.08845 | -21.63459 | 1504 ft | 114 kts | 137° |
| 2026-05-08 11:19 | 64.08188 | -21.62389 | 1507 ft | 117 kts | 142° |
| 2026-05-08 11:19 | 64.07524 | -21.61326 | 1500 ft | 117 kts | 129° |
| 2026-05-08 11:19 | 64.07117 | -21.59764 | 1508 ft | 115 kts | 105° |
| 2026-05-08 11:20 | 64.06844 | -21.57972 | 1506 ft | 122 kts | 103° |
| 2026-05-08 11:20 | 64.06598 | -21.56105 | 1503 ft | 125 kts | 103° |
| 2026-05-08 11:20 | 64.06290 | -21.54212 | 1529 ft | 126 kts | 105° |
| 2026-05-08 11:20 | 64.06007 | -21.52420 | 1722 ft | 115 kts | 101° |
| 2026-05-08 11:21 | 64.05763 | -21.50749 | 1936 ft | 110 kts | 105° |
| 2026-05-08 11:21 | 64.05469 | -21.49159 | 2161 ft | 107 kts | 105° |
| 2026-05-08 11:21 | 64.05181 | -21.47616 | 2366 ft | 105 kts | 102° |
| 2026-05-08 11:21 | 64.04915 | -21.46047 | 2548 ft | 106 kts | 106° |
| 2026-05-08 11:22 | 64.04627 | -21.44511 | 2732 ft | 106 kts | 105° |
| 2026-05-08 11:22 | 64.04321 | -21.42971 | 2916 ft | 107 kts | 106° |
| 2026-05-08 11:22 | 64.04024 | -21.41411 | 3087 ft | 106 kts | 101° |
| 2026-05-08 11:22 | 64.03744 | -21.39836 | 3236 ft | 110 kts | 103° |
| 2026-05-08 11:23 | 64.03423 | -21.38191 | 3366 ft | 116 kts | 107° |
| 2026-05-08 11:23 | 64.03088 | -21.36492 | 3418 ft | 122 kts | 106° |
| 2026-05-08 11:23 | 64.02743 | -21.34672 | 3433 ft | 126 kts | 106° |
| 2026-05-08 11:23 | 64.02426 | -21.32788 | 3446 ft | 127 kts | 103° |
| 2026-05-08 11:24 | 64.02132 | -21.30883 | 3456 ft | 128 kts | 102° |
| 2026-05-08 11:24 | 64.01837 | -21.28971 | 3467 ft | 128 kts | 103° |
| 2026-05-08 11:24 | 64.01510 | -21.27066 | 3442 ft | 131 kts | 105° |
| 2026-05-08 11:24 | 64.01166 | -21.25146 | 3432 ft | 131 kts | 105° |
| 2026-05-08 11:25 | 64.00803 | -21.23240 | 3433 ft | 130 kts | 107° |
| 2026-05-08 11:25 | 64.00414 | -21.21389 | 3450 ft | 129 kts | 111° |
| 2026-05-08 11:25 | 63.99981 | -21.19597 | 3474 ft | 129 kts | 114° |
| 2026-05-08 11:25 | 63.99409 | -21.17993 | 3442 ft | 131 kts | 130° |
| 2026-05-08 11:26 | 63.98766 | -21.16517 | 3268 ft | 133 kts | 131° |
| 2026-05-08 11:26 | 63.98123 | -21.14975 | 3062 ft | 134 kts | 126° |
| 2026-05-08 11:26 | 63.97564 | -21.13429 | 2801 ft | 124 kts | 122° |
| 2026-05-08 11:26 | 63.97063 | -21.11878 | 2533 ft | 118 kts | 120° |
| 2026-05-08 11:27 | 63.96580 | -21.10435 | 2269 ft | 114 kts | 122° |
| 2026-05-08 11:27 | 63.96114 | -21.09068 | 2004 ft | 105 kts | 123° |
| 2026-05-08 11:27 | 63.95635 | -21.07845 | 1743 ft | 100 kts | 128° |
| 2026-05-08 11:27 | 63.95165 | -21.06696 | 1495 ft | 101 kts | 129° |
| 2026-05-08 11:28 | 63.94652 | -21.05642 | 1415 ft | 99 kts | 133° |
| 2026-05-08 11:28 | 63.94079 | -21.04774 | 1226 ft | 107 kts | 184° |
| 2026-05-08 11:28 | 63.93442 | -21.05537 | 1111 ft | 103 kts | 216° |
| 2026-05-08 11:28 | 63.92844 | -21.06448 | 1048 ft | 102 kts | 220° |
| 2026-05-08 11:29 | 63.92275 | -21.07151 | 972 ft | 91 kts | 182° |
| 2026-05-08 11:29 | 63.91785 | -21.06473 | 810 ft | 82 kts | 115° |
| 2026-05-08 11:29 | 63.91828 | -21.05395 | 585 ft | 75 kts | 31° |
| 2026-05-08 11:29 | 63.92282 | -21.04749 | 165 ft | 76 kts | 31° |
| 2026-05-08 11:30 | 63.92659 | -21.04177 | 15 ft | 49 kts | 35° |
| 2026-05-08 11:30 | 63.92872 | -21.03848 | 18 ft | 26 kts | 33° |
| 2026-05-08 11:30 | 63.92886 | -21.03696 | 18 ft | 14 kts | 134° |
| 2026-05-08 11:30 | 63.92866 | -21.03583 | 18 ft | 5 kts | 28° |
| 2026-05-08 11:31 | 63.92872 | -21.03575 | 18 ft | 3 kts | 33° |
| 2026-05-08 11:31 | 63.92890 | -21.03538 | 18 ft | 3 kts | 88° |
| 2026-05-08 11:31 | 63.92874 | -21.03478 | 18 ft | 9 kts | 130° |
| 2026-05-08 11:31 | 63.92859 | -21.03441 | 18 ft | 0 kts | 129° |